sensor_id;sensor_type;location;lat;lon;timestamp;pressure;altitude;pressure_sealevel;temperature;humidity
36404;BME280;22437;55.646;37.518;2022-09-09T00:02:27;99440.25;;;9.25;55.65
36404;BME280;22437;55.646;37.518;2022-09-09T00:05:00;99448.38;;;9.25;55.77
36404;BME280;22437;55.646;37.518;2022-09-09T00:07:38;99429.69;;;9.15;55.85
36404;BME280;22437;55.646;37.518;2022-09-09T00:10:18;99456.84;;;9.24;55.86
36404;BME280;22437;55.646;37.518;2022-09-09T00:12:54;99453.34;;;9.14;56.21
36404;BME280;22437;55.646;37.518;2022-09-09T00:15:35;99447.28;;;9.17;55.95
36404;BME280;22437;55.646;37.518;2022-09-09T00:18:15;99454.44;;;9.22;55.83
36404;BME280;22437;55.646;37.518;2022-09-09T00:20:49;99447.44;;;9.12;56.07
36404;BME280;22437;55.646;37.518;2022-09-09T00:23:24;99449.53;;;9.15;56.14
36404;BME280;22437;55.646;37.518;2022-09-09T00:26:01;99454.78;;;9.12;55.92
36404;BME280;22437;55.646;37.518;2022-09-09T00:28:38;99455.44;;;9.09;55.93
36404;BME280;22437;55.646;37.518;2022-09-09T00:31:12;99450.81;;;9.00;56.26
36404;BME280;22437;55.646;37.518;2022-09-09T00:33:43;99462.13;;;8.94;56.51
36404;BME280;22437;55.646;37.518;2022-09-09T00:36:14;99461.66;;;8.92;56.38
36404;BME280;22437;55.646;37.518;2022-09-09T00:38:47;99451.78;;;8.87;56.68
36404;BME280;22437;55.646;37.518;2022-09-09T00:41:22;99461.03;;;8.77;56.97
36404;BME280;22437;55.646;37.518;2022-09-09T00:44:00;99466.78;;;8.76;56.95
36404;BME280;22437;55.646;37.518;2022-09-09T00:46:54;99472.34;;;8.88;56.94
36404;BME280;22437;55.646;37.518;2022-09-09T00:49:35;99467.56;;;8.76;57.35
36404;BME280;22437;55.646;37.518;2022-09-09T00:52:16;99471.91;;;8.77;57.28
36404;BME280;22437;55.646;37.518;2022-09-09T00:54:52;99470.13;;;8.73;57.56
36404;BME280;22437;55.646;37.518;2022-09-09T00:57:28;99474.91;;;8.67;57.75
36404;BME280;22437;55.646;37.518;2022-09-09T01:00:20;99476.66;;;8.80;57.92
36404;BME280;22437;55.646;37.518;2022-09-09T01:03:00;99483.22;;;8.71;57.91
36404;BME280;22437;55.646;37.518;2022-09-09T01:05:35;99479.38;;;8.72;57.85
36404;BME280;22437;55.646;37.518;2022-09-09T01:08:17;99482.28;;;8.75;57.61
36404;BME280;22437;55.646;37.518;2022-09-09T01:10:56;99478.44;;;8.68;57.73
36404;BME280;22437;55.646;37.518;2022-09-09T01:13:31;99480.31;;;8.67;57.89
36404;BME280;22437;55.646;37.518;2022-09-09T01:16:10;99487.84;;;8.70;58.13
36404;BME280;22437;55.646;37.518;2022-09-09T01:18:44;99486.41;;;8.73;57.67
36404;BME280;22437;55.646;37.518;2022-09-09T01:21:21;99488.50;;;8.76;57.58
36404;BME280;22437;55.646;37.518;2022-09-09T01:24:14;99489.94;;;8.91;57.81
36404;BME280;22437;55.646;37.518;2022-09-09T01:27:06;99495.03;;;8.66;57.72
36404;BME280;22437;55.646;37.518;2022-09-09T01:29:36;99492.16;;;8.62;57.70
36404;BME280;22437;55.646;37.518;2022-09-09T01:32:37;99496.16;;;8.74;57.96
36404;BME280;22437;55.646;37.518;2022-09-09T01:35:11;99502.03;;;8.58;58.22
36404;BME280;22437;55.646;37.518;2022-09-09T01:37:42;99508.88;;;8.47;58.58
36404;BME280;22437;55.646;37.518;2022-09-09T01:40:12;99506.47;;;8.46;58.74
36404;BME280;22437;55.646;37.518;2022-09-09T01:42:45;99506.47;;;8.46;59.12
36404;BME280;22437;55.646;37.518;2022-09-09T01:45:14;99512.38;;;8.48;58.96
36404;BME280;22437;55.646;37.518;2022-09-09T01:47:44;99508.63;;;8.35;59.18
36404;BME280;22437;55.646;37.518;2022-09-09T01:50:27;99519.16;;;8.28;59.56
36404;BME280;22437;55.646;37.518;2022-09-09T01:52:58;99521.53;;;8.20;59.86
36404;BME280;22437;55.646;37.518;2022-09-09T01:55:40;99518.19;;;8.23;60.12
36404;BME280;22437;55.646;37.518;2022-09-09T01:58:25;99524.13;;;8.34;59.91
36404;BME280;22437;55.646;37.518;2022-09-09T02:01:08;99523.63;;;8.32;60.02
36404;BME280;22437;55.646;37.518;2022-09-09T02:03:46;99529.66;;;8.20;60.00
36404;BME280;22437;55.646;37.518;2022-09-09T02:06:26;99519.13;;;8.19;60.53
36404;BME280;22437;55.646;37.518;2022-09-09T02:11:30;99531.84;;;8.10;60.64
36404;BME280;22437;55.646;37.518;2022-09-09T02:14:10;99532.31;;;8.03;60.94
36404;BME280;22437;55.646;37.518;2022-09-09T02:16:47;99532.31;;;8.03;61.10
36404;BME280;22437;55.646;37.518;2022-09-09T02:19:23;99534.03;;;7.99;61.31
36404;BME280;22437;55.646;37.518;2022-09-09T02:22:03;99532.13;;;7.99;61.18
36404;BME280;22437;55.646;37.518;2022-09-09T02:24:34;99541.81;;;7.92;61.28
36404;BME280;22437;55.646;37.518;2022-09-09T02:27:23;99545.00;;;7.94;61.62
36404;BME280;22437;55.646;37.518;2022-09-09T02:29:54;99549.31;;;7.95;61.70
36404;BME280;22437;55.646;37.518;2022-09-09T02:32:36;99550.13;;;7.95;61.43
36404;BME280;22437;55.646;37.518;2022-09-09T02:35:11;99549.94;;;7.92;61.72
36404;BME280;22437;55.646;37.518;2022-09-09T02:37:44;99552.53;;;7.97;61.72
36404;BME280;22437;55.646;37.518;2022-09-09T02:40:15;99555.06;;;7.93;61.86
36404;BME280;22437;55.646;37.518;2022-09-09T02:42:49;99559.16;;;7.91;61.58
36404;BME280;22437;55.646;37.518;2022-09-09T02:45:25;99559.66;;;7.93;61.93
36404;BME280;22437;55.646;37.518;2022-09-09T02:48:01;99559.81;;;7.88;62.19
36404;BME280;22437;55.646;37.518;2022-09-09T02:50:34;99560.28;;;7.90;62.02
36404;BME280;22437;55.646;37.518;2022-09-09T02:53:09;99566.81;;;7.89;61.95
36404;BME280;22437;55.646;37.518;2022-09-09T02:55:47;99560.53;;;7.79;62.29
36404;BME280;22437;55.646;37.518;2022-09-09T02:58:19;99562.66;;;7.60;62.75
36404;BME280;22437;55.646;37.518;2022-09-09T03:00:57;99575.41;;;7.59;62.65
36404;BME280;22437;55.646;37.518;2022-09-09T03:03:29;99579.16;;;7.50;62.79
36404;BME280;22437;55.646;37.518;2022-09-09T03:08:28;99571.94;;;7.45;63.02
36404;BME280;22437;55.646;37.518;2022-09-09T03:10:59;99569.56;;;7.43;63.03
36404;BME280;22437;55.646;37.518;2022-09-09T03:13:32;99579.53;;;7.34;63.46
36404;BME280;22437;55.646;37.518;2022-09-09T03:16:02;99581.56;;;7.29;63.69
36404;BME280;22437;55.646;37.518;2022-09-09T03:18:37;99574.84;;;7.26;63.53
36404;BME280;22437;55.646;37.518;2022-09-09T03:21:07;99573.84;;;7.22;63.59
36404;BME280;22437;55.646;37.518;2022-09-09T03:23:37;99579.03;;;7.32;63.43
36404;BME280;22437;55.646;37.518;2022-09-09T03:26:07;99575.94;;;7.25;63.46
36404;BME280;22437;55.646;37.518;2022-09-09T03:28:42;99576.34;;;7.18;63.57
36404;BME280;22437;55.646;37.518;2022-09-09T03:31:17;99580.06;;;7.22;63.89
36404;BME280;22437;55.646;37.518;2022-09-09T03:33:46;99576.69;;;7.62;63.66
36404;BME280;22437;55.646;37.518;2022-09-09T03:36:17;99585.50;;;7.22;63.42
36404;BME280;22437;55.646;37.518;2022-09-09T03:38:46;99584.47;;;7.18;63.79
36404;BME280;22437;55.646;37.518;2022-09-09T03:41:16;99586.38;;;7.18;64.20
36404;BME280;22437;55.646;37.518;2022-09-09T03:43:46;99587.47;;;7.31;63.90
36404;BME280;22437;55.646;37.518;2022-09-09T03:46:16;99598.34;;;7.39;63.63
36404;BME280;22437;55.646;37.518;2022-09-09T03:48:46;99599.97;;;7.40;63.65
36404;BME280;22437;55.646;37.518;2022-09-09T03:51:15;99595.34;;;7.41;63.75
36404;BME280;22437;55.646;37.518;2022-09-09T03:53:45;99611.22;;;7.56;63.51
36404;BME280;22437;55.646;37.518;2022-09-09T03:56:15;99609.19;;;7.62;63.51
36404;BME280;22437;55.646;37.518;2022-09-09T03:58:45;99611.00;;;7.89;63.48
36404;BME280;22437;55.646;37.518;2022-09-09T04:01:14;99611.63;;;7.95;63.42
36404;BME280;22437;55.646;37.518;2022-09-09T04:03:48;99613.66;;;8.12;63.14
36404;BME280;22437;55.646;37.518;2022-09-09T04:06:17;99607.16;;;8.21;62.67
36404;BME280;22437;55.646;37.518;2022-09-09T04:08:48;99616.69;;;8.41;62.15
36404;BME280;22437;55.646;37.518;2022-09-09T04:11:20;99612.28;;;8.54;61.47
36404;BME280;22437;55.646;37.518;2022-09-09T04:13:52;99613.56;;;8.57;60.52
36404;BME280;22437;55.646;37.518;2022-09-09T04:16:21;99615.66;;;8.69;60.25
36404;BME280;22437;55.646;37.518;2022-09-09T04:18:53;99604.03;;;8.68;60.09
36404;BME280;22437;55.646;37.518;2022-09-09T04:21:25;99619.22;;;8.78;59.81
36404;BME280;22437;55.646;37.518;2022-09-09T04:23:55;99623.38;;;8.84;59.45
36404;BME280;22437;55.646;37.518;2022-09-09T04:26:26;99628.19;;;8.87;59.02
36404;BME280;22437;55.646;37.518;2022-09-09T04:29:00;99618.78;;;8.93;59.07
36404;BME280;22437;55.646;37.518;2022-09-09T04:31:30;99625.81;;;8.94;58.90
36404;BME280;22437;55.646;37.518;2022-09-09T04:34:03;99621.19;;;9.04;58.75
36404;BME280;22437;55.646;37.518;2022-09-09T04:36:33;99616.72;;;9.08;58.40
36404;BME280;22437;55.646;37.518;2022-09-09T04:39:06;99626.00;;;9.15;58.23
36404;BME280;22437;55.646;37.518;2022-09-09T04:41:38;99627.28;;;9.18;57.88
36404;BME280;22437;55.646;37.518;2022-09-09T04:44:09;99627.13;;;9.23;57.65
36404;BME280;22437;55.646;37.518;2022-09-09T04:46:39;99625.19;;;9.32;57.33
36404;BME280;22437;55.646;37.518;2022-09-09T04:49:11;99626.66;;;9.38;57.38
36404;BME280;22437;55.646;37.518;2022-09-09T04:51:43;99633.34;;;9.32;56.86
36404;BME280;22437;55.646;37.518;2022-09-09T04:54:16;99635.09;;;9.28;56.72
36404;BME280;22437;55.646;37.518;2022-09-09T04:56:46;99633.34;;;9.32;56.81
36404;BME280;22437;55.646;37.518;2022-09-09T04:59:16;99634.47;;;9.40;56.77
36404;BME280;22437;55.646;37.518;2022-09-09T05:01:50;99639.91;;;9.40;56.82
36404;BME280;22437;55.646;37.518;2022-09-09T05:04:23;99640.06;;;9.44;56.91
36404;BME280;22437;55.646;37.518;2022-09-09T05:06:53;99648.41;;;9.38;56.69
36404;BME280;22437;55.646;37.518;2022-09-09T05:09:24;99642.94;;;9.30;56.75
36404;BME280;22437;55.646;37.518;2022-09-09T05:11:53;99641.19;;;9.25;56.73
36404;BME280;22437;55.646;37.518;2022-09-09T05:14:29;99653.28;;;9.19;57.03
36404;BME280;22437;55.646;37.518;2022-09-09T05:17:00;99656.97;;;9.14;56.90
36404;BME280;22437;55.646;37.518;2022-09-09T05:19:31;99653.81;;;9.21;56.84
36404;BME280;22437;55.646;37.518;2022-09-09T05:22:02;99661.44;;;9.19;56.72
36404;BME280;22437;55.646;37.518;2022-09-09T05:24:39;99664.34;;;9.31;56.48
36404;BME280;22437;55.646;37.518;2022-09-09T05:27:09;99665.31;;;9.27;56.53
36404;BME280;22437;55.646;37.518;2022-09-09T05:29:40;99656.03;;;9.80;55.92
36404;BME280;22437;55.646;37.518;2022-09-09T05:32:13;99656.38;;;9.44;55.79
36404;BME280;22437;55.646;37.518;2022-09-09T05:34:50;99659.72;;;9.49;56.06
36404;BME280;22437;55.646;37.518;2022-09-09T05:37:19;99657.34;;;9.39;56.05
36404;BME280;22437;55.646;37.518;2022-09-09T05:39:49;99653.19;;;9.33;56.01
36404;BME280;22437;55.646;37.518;2022-09-09T05:42:20;99658.94;;;9.49;55.27
36404;BME280;22437;55.646;37.518;2022-09-09T05:44:51;99659.56;;;9.46;54.44
36404;BME280;22437;55.646;37.518;2022-09-09T05:47:22;99661.66;;;9.49;54.31
36404;BME280;22437;55.646;37.518;2022-09-09T05:49:53;99659.44;;;9.59;54.75
36404;BME280;22437;55.646;37.518;2022-09-09T05:52:23;99661.19;;;9.73;54.15
36404;BME280;22437;55.646;37.518;2022-09-09T05:54:53;99661.81;;;9.87;54.15
36404;BME280;22437;55.646;37.518;2022-09-09T05:57:25;99669.97;;;9.96;54.19
36404;BME280;22437;55.646;37.518;2022-09-09T05:59:56;99663.69;;;10.04;53.16
36404;BME280;22437;55.646;37.518;2022-09-09T06:02:25;99663.06;;;10.07;52.42
36404;BME280;22437;55.646;37.518;2022-09-09T06:04:57;99659.66;;;10.36;52.40
36404;BME280;22437;55.646;37.518;2022-09-09T06:07:46;99670.41;;;10.71;51.81
36404;BME280;22437;55.646;37.518;2022-09-09T06:10:20;99664.09;;;10.88;50.43
36404;BME280;22437;55.646;37.518;2022-09-09T06:12:55;99662.03;;;11.15;48.34
36404;BME280;22437;55.646;37.518;2022-09-09T06:15:27;99668.09;;;11.42;47.39
36404;BME280;22437;55.646;37.518;2022-09-09T06:18:03;99672.06;;;11.65;46.22
36404;BME280;22437;55.646;37.518;2022-09-09T06:20:39;99677.50;;;11.86;45.23
36404;BME280;22437;55.646;37.518;2022-09-09T06:23:10;99682.38;;;12.47;44.16
36404;BME280;22437;55.646;37.518;2022-09-09T06:25:43;99681.41;;;13.13;41.96
36404;BME280;22437;55.646;37.518;2022-09-09T06:28:15;99684.72;;;13.31;40.77
36404;BME280;22437;55.646;37.518;2022-09-09T06:30:47;99691.19;;;12.65;41.91
36404;BME280;22437;55.646;37.518;2022-09-09T06:33:35;99687.56;;;12.61;42.33
36404;BME280;22437;55.646;37.518;2022-09-09T06:36:16;99689.94;;;13.24;41.84
36404;BME280;22437;55.646;37.518;2022-09-09T06:38:47;99687.47;;;14.00;39.51
36404;BME280;22437;55.646;37.518;2022-09-09T06:41:22;99687.00;;;14.10;38.18
36404;BME280;22437;55.646;37.518;2022-09-09T06:43:55;99692.19;;;13.47;38.88
36404;BME280;22437;55.646;37.518;2022-09-09T06:46:34;99688.44;;;13.92;38.84
36404;BME280;22437;55.646;37.518;2022-09-09T06:49:09;99693.81;;;14.61;36.62
36404;BME280;22437;55.646;37.518;2022-09-09T06:51:47;99690.25;;;14.92;36.90
36404;BME280;22437;55.646;37.518;2022-09-09T06:54:23;99701.00;;;14.53;37.06
36404;BME280;22437;55.646;37.518;2022-09-09T06:56:58;99701.25;;;14.32;37.87
36404;BME280;22437;55.646;37.518;2022-09-09T07:00:00;99701.13;;;15.56;36.38
36404;BME280;22437;55.646;37.518;2022-09-09T07:02:32;99705.00;;;16.10;34.18
36404;BME280;22437;55.646;37.518;2022-09-09T07:05:12;99698.28;;;15.17;34.34
36404;BME280;22437;55.646;37.518;2022-09-09T07:07:55;99708.13;;;15.02;35.73
36404;BME280;22437;55.646;37.518;2022-09-09T07:10:35;99703.47;;;15.93;34.79
36404;BME280;22437;55.646;37.518;2022-09-09T07:13:08;99707.78;;;16.33;32.96
36404;BME280;22437;55.646;37.518;2022-09-09T07:15:51;99709.91;;;15.81;32.08
36404;BME280;22437;55.646;37.518;2022-09-09T07:18:24;99704.03;;;17.10;30.41
36404;BME280;22437;55.646;37.518;2022-09-09T07:20:56;99714.19;;;15.98;32.13
36404;BME280;22437;55.646;37.518;2022-09-09T07:23:48;99723.00;;;17.19;31.51
36404;BME280;22437;55.646;37.518;2022-09-09T07:26:21;99721.22;;;16.38;32.12
36404;BME280;22437;55.646;37.518;2022-09-09T07:28:54;99719.84;;;15.18;33.68
36404;BME280;22437;55.646;37.518;2022-09-09T07:31:27;99730.00;;;14.54;35.84
36404;BME280;22437;55.646;37.518;2022-09-09T07:34:00;99735.16;;;15.03;35.52
36404;BME280;22437;55.646;37.518;2022-09-09T07:36:35;99739.31;;;15.64;33.42
36404;BME280;22437;55.646;37.518;2022-09-09T07:39:17;99740.31;;;16.11;32.76
36404;BME280;22437;55.646;37.518;2022-09-09T07:41:56;99736.19;;;16.21;32.72
36404;BME280;22437;55.646;37.518;2022-09-09T07:44:33;99745.38;;;15.54;33.39
36404;BME280;22437;55.646;37.518;2022-09-09T07:47:11;99748.88;;;14.87;33.74
36404;BME280;22437;55.646;37.518;2022-09-09T07:49:46;99744.56;;;15.54;33.53
36404;BME280;22437;55.646;37.518;2022-09-09T07:52:30;99752.47;;;17.18;31.48
36404;BME280;22437;55.646;37.518;2022-09-09T07:55:10;99752.53;;;18.39;28.83
36404;BME280;22437;55.646;37.518;2022-09-09T07:57:46;99756.59;;;17.32;29.95
36404;BME280;22437;55.646;37.518;2022-09-09T08:00:17;99759.31;;;15.81;31.91
36404;BME280;22437;55.646;37.518;2022-09-09T08:02:57;99761.50;;;15.24;33.83
36404;BME280;22437;55.646;37.518;2022-09-09T08:05:29;99758.31;;;14.90;34.42
36404;BME280;22437;55.646;37.518;2022-09-09T08:08:05;99761.00;;;14.86;34.67
36404;BME280;22437;55.646;37.518;2022-09-09T08:10:45;99750.78;;;16.25;34.44
36404;BME280;22437;55.646;37.518;2022-09-09T08:13:18;99755.25;;;18.73;29.46
36404;BME280;22437;55.646;37.518;2022-09-09T08:15:54;99757.44;;;17.89;28.59
36404;BME280;22437;55.646;37.518;2022-09-09T08:18:27;99761.63;;;16.80;29.79
36404;BME280;22437;55.646;37.518;2022-09-09T08:20:58;99759.47;;;15.88;31.13
36404;BME280;22437;55.646;37.518;2022-09-09T08:23:39;99760.00;;;15.26;32.75
36404;BME280;22437;55.646;37.518;2022-09-09T08:26:14;99762.56;;;14.87;33.48
36404;BME280;22437;55.646;37.518;2022-09-09T08:28:44;99764.34;;;14.52;33.58
36404;BME280;22437;55.646;37.518;2022-09-09T08:31:25;99770.84;;;14.59;34.04
36404;BME280;22437;55.646;37.518;2022-09-09T08:33:59;99771.81;;;14.67;33.44
36404;BME280;22437;55.646;37.518;2022-09-09T08:36:38;99775.94;;;14.89;34.08
36404;BME280;22437;55.646;37.518;2022-09-09T08:39:16;99764.72;;;14.94;32.77
36404;BME280;22437;55.646;37.518;2022-09-09T08:45:36;99762.66;;;17.41;30.49
36404;BME280;22437;55.646;37.518;2022-09-09T08:48:22;99764.75;;;18.79;28.89
36404;BME280;22437;55.646;37.518;2022-09-09T08:51:03;99759.88;;;19.62;26.89
36404;BME280;22437;55.646;37.518;2022-09-09T08:53:42;99773.84;;;18.80;26.91
36404;BME280;22437;55.646;37.518;2022-09-09T08:56:16;99773.56;;;18.55;27.87
36404;BME280;22437;55.646;37.518;2022-09-09T08:58:55;99775.16;;;18.56;27.94
36404;BME280;22437;55.646;37.518;2022-09-09T09:01:53;99770.28;;;19.83;25.73
36404;BME280;22437;55.646;37.518;2022-09-09T09:04:45;99771.06;;;21.29;24.40
36404;BME280;22437;55.646;37.518;2022-09-09T09:07:28;99771.25;;;22.95;22.95
36404;BME280;22437;55.646;37.518;2022-09-09T09:10:10;99771.00;;;23.27;22.57
36404;BME280;22437;55.646;37.518;2022-09-09T09:13:03;99774.25;;;21.35;23.70
36404;BME280;22437;55.646;37.518;2022-09-09T09:15:37;99780.53;;;20.74;24.72
36404;BME280;22437;55.646;37.518;2022-09-09T09:18:12;99774.13;;;19.12;26.61
36404;BME280;22437;55.646;37.518;2022-09-09T09:20:52;99779.91;;;17.15;30.42
36404;BME280;22437;55.646;37.518;2022-09-09T09:23:25;99793.44;;;16.19;32.32
36404;BME280;22437;55.646;37.518;2022-09-09T09:26:00;99792.25;;;15.81;32.71
36404;BME280;22437;55.646;37.518;2022-09-09T09:28:32;99789.97;;;15.51;33.09
36404;BME280;22437;55.646;37.518;2022-09-09T09:31:19;99780.84;;;15.63;33.06
36404;BME280;22437;55.646;37.518;2022-09-09T09:33:57;99775.88;;;17.58;30.84
36404;BME280;22437;55.646;37.518;2022-09-09T09:36:38;99778.06;;;20.47;26.53
36404;BME280;22437;55.646;37.518;2022-09-09T09:39:42;99771.03;;;22.67;22.75
36404;BME280;22437;55.646;37.518;2022-09-09T09:42:53;99764.28;;;24.93;19.48
36404;BME280;22437;55.646;37.518;2022-09-09T09:45:33;99766.97;;;23.39;20.91
36404;BME280;22437;55.646;37.518;2022-09-09T09:48:27;99773.81;;;20.82;23.95
36404;BME280;22437;55.646;37.518;2022-09-09T09:51:17;99781.00;;;17.60;27.39
36404;BME280;22437;55.646;37.518;2022-09-09T09:54:13;99777.22;;;17.18;28.72
36404;BME280;22437;55.646;37.518;2022-09-09T09:56:55;99778.66;;;16.86;30.47
36404;BME280;22437;55.646;37.518;2022-09-09T09:59:43;99772.44;;;19.45;27.83
36404;BME280;22437;55.646;37.518;2022-09-09T10:02:44;99771.78;;;21.83;23.89
36404;BME280;22437;55.646;37.518;2022-09-09T10:05:27;99757.81;;;23.76;21.42
36404;BME280;22437;55.646;37.518;2022-09-09T10:08:12;99773.44;;;23.63;20.99
36404;BME280;22437;55.646;37.518;2022-09-09T10:11:02;99784.53;;;21.48;23.93
36404;BME280;22437;55.646;37.518;2022-09-09T10:13:42;99779.88;;;18.93;26.19
36404;BME280;22437;55.646;37.518;2022-09-09T10:16:29;99787.00;;;17.92;28.22
36404;BME280;22437;55.646;37.518;2022-09-09T10:19:08;99780.59;;;17.31;29.35
36404;BME280;22437;55.646;37.518;2022-09-09T10:21:56;99779.22;;;20.39;25.16
36404;BME280;22437;55.646;37.518;2022-09-09T10:24:56;99778.63;;;22.56;23.13
36404;BME280;22437;55.646;37.518;2022-09-09T10:27:36;99773.63;;;23.87;20.50
36404;BME280;22437;55.646;37.518;2022-09-09T10:30:14;99776.50;;;24.14;19.32
36404;BME280;22437;55.646;37.518;2022-09-09T10:32:49;99779.56;;;23.47;20.00
36404;BME280;22437;55.646;37.518;2022-09-09T10:35:29;99785.91;;;23.48;20.53
36404;BME280;22437;55.646;37.518;2022-09-09T10:41:18;99787.66;;;20.71;24.08
36404;BME280;22437;55.646;37.518;2022-09-09T10:47:37;99790.47;;;17.63;28.70
36404;BME280;22437;55.646;37.518;2022-09-09T10:50:35;99788.72;;;17.24;28.46
36404;BME280;22437;55.646;37.518;2022-09-09T10:53:53;99780.94;;;19.81;25.57
36404;BME280;22437;55.646;37.518;2022-09-09T10:56:29;99776.91;;;21.96;22.64
36404;BME280;22437;55.646;37.518;2022-09-09T10:59:14;99782.97;;;23.65;20.32
36404;BME280;22437;55.646;37.518;2022-09-09T11:01:53;99783.06;;;23.55;20.15
36404;BME280;22437;55.646;37.518;2022-09-09T11:04:31;99770.38;;;24.57;18.70
36404;BME280;22437;55.646;37.518;2022-09-09T11:07:08;99780.47;;;25.01;18.41
36404;BME280;22437;55.646;37.518;2022-09-09T11:09:48;99778.03;;;24.46;19.06
36404;BME280;22437;55.646;37.518;2022-09-09T11:12:20;99782.63;;;22.55;21.06
36404;BME280;22437;55.646;37.518;2022-09-09T11:14:57;99785.19;;;20.59;23.17
36404;BME280;22437;55.646;37.518;2022-09-09T11:17:43;99794.44;;;18.90;26.18
36404;BME280;22437;55.646;37.518;2022-09-09T11:20:24;99796.94;;;17.74;27.63
36404;BME280;22437;55.646;37.518;2022-09-09T11:23:03;99791.47;;;17.01;28.86
36404;BME280;22437;55.646;37.518;2022-09-09T11:25:47;99799.41;;;17.06;28.71
36404;BME280;22437;55.646;37.518;2022-09-09T11:31:44;99783.72;;;21.59;23.10
36404;BME280;22437;55.646;37.518;2022-09-09T11:34:37;99785.88;;;23.93;20.82
36404;BME280;22437;55.646;37.518;2022-09-09T11:37:50;99789.09;;;23.46;20.41
36404;BME280;22437;55.646;37.518;2022-09-09T11:40:31;99786.03;;;20.67;23.83
36404;BME280;22437;55.646;37.518;2022-09-09T11:43:10;99799.78;;;18.75;26.33
36404;BME280;22437;55.646;37.518;2022-09-09T11:45:55;99803.28;;;17.78;28.68
36404;BME280;22437;55.646;37.518;2022-09-09T11:48:58;99796.34;;;17.61;29.17
36404;BME280;22437;55.646;37.518;2022-09-09T11:51:36;99796.72;;;16.87;30.19
36404;BME280;22437;55.646;37.518;2022-09-09T11:54:30;99799.75;;;16.62;30.60
36404;BME280;22437;55.646;37.518;2022-09-09T11:57:04;99791.13;;;16.40;29.89
36404;BME280;22437;55.646;37.518;2022-09-09T11:59:52;99796.75;;;16.09;31.51
36404;BME280;22437;55.646;37.518;2022-09-09T12:02:29;99791.25;;;16.48;31.59
36404;BME280;22437;55.646;37.518;2022-09-09T12:05:06;99786.31;;;18.70;27.28
36404;BME280;22437;55.646;37.518;2022-09-09T12:07:50;99786.38;;;20.51;24.86
36404;BME280;22437;55.646;37.518;2022-09-09T12:10:27;99785.47;;;20.25;24.81
36404;BME280;22437;55.646;37.518;2022-09-09T12:13:16;99777.72;;;19.16;25.95
36404;BME280;22437;55.646;37.518;2022-09-09T12:19:19;99775.88;;;18.87;25.92
36404;BME280;22437;55.646;37.518;2022-09-09T12:25:16;99777.66;;;16.35;28.84
36404;BME280;22437;55.646;37.518;2022-09-09T12:28:00;99779.03;;;16.25;28.97
36404;BME280;22437;55.646;37.518;2022-09-09T12:30:48;99784.88;;;15.85;30.37
36404;BME280;22437;55.646;37.518;2022-09-09T12:33:22;99784.84;;;15.50;31.13
36404;BME280;22437;55.646;37.518;2022-09-09T12:38:36;99784.59;;;15.23;33.00
36404;BME280;22437;55.646;37.518;2022-09-09T12:41:28;99789.53;;;14.85;33.82
36404;BME280;22437;55.646;37.518;2022-09-09T12:44:21;99796.88;;;14.25;34.83
36404;BME280;22437;55.646;37.518;2022-09-09T12:46:54;99795.47;;;14.03;35.39
36404;BME280;22437;55.646;37.518;2022-09-09T12:49:39;99801.09;;;13.82;35.44
36404;BME280;22437;55.646;37.518;2022-09-09T12:52:17;99793.13;;;14.17;34.91
36404;BME280;22437;55.646;37.518;2022-09-09T12:54:52;99789.50;;;14.41;34.22
36404;BME280;22437;55.646;37.518;2022-09-09T12:57:26;99789.16;;;14.71;32.82
36404;BME280;22437;55.646;37.518;2022-09-09T13:00:11;99785.03;;;14.93;32.57
36404;BME280;22437;55.646;37.518;2022-09-09T13:03:18;99780.25;;;15.38;32.66
36404;BME280;22437;55.646;37.518;2022-09-09T13:06:27;99781.88;;;15.74;32.07
36404;BME280;22437;55.646;37.518;2022-09-09T13:09:02;99782.66;;;15.23;31.61
36404;BME280;22437;55.646;37.518;2022-09-09T13:55:34;99778.84;;;16.77;29.32
36404;BME280;22437;55.646;37.518;2022-09-09T13:58:17;99780.19;;;16.44;30.66
36404;BME280;22437;55.646;37.518;2022-09-09T14:01:03;99777.81;;;16.23;31.47
36404;BME280;22437;55.646;37.518;2022-09-09T14:04:11;99779.25;;;16.36;31.33
36404;BME280;22437;55.646;37.518;2022-09-09T14:07:00;99781.31;;;17.05;30.56
36404;BME280;22437;55.646;37.518;2022-09-09T14:13:17;99775.88;;;16.04;32.26
36404;BME280;22437;55.646;37.518;2022-09-09T14:15:54;99775.25;;;15.75;32.31
36404;BME280;22437;55.646;37.518;2022-09-09T14:18:36;99774.16;;;15.13;33.09
36404;BME280;22437;55.646;37.518;2022-09-09T14:21:17;99773.63;;;14.91;33.83
36404;BME280;22437;55.646;37.518;2022-09-09T14:23:55;99777.00;;;14.56;33.58
36404;BME280;22437;55.646;37.518;2022-09-09T14:26:30;99787.75;;;14.21;34.95
36404;BME280;22437;55.646;37.518;2022-09-09T14:29:06;99779.22;;;14.95;34.59
36404;BME280;22437;55.646;37.518;2022-09-09T14:31:40;99780.69;;;14.92;33.99
36404;BME280;22437;55.646;37.518;2022-09-09T14:34:28;99768.78;;;15.00;33.44
36404;BME280;22437;55.646;37.518;2022-09-09T14:37:01;99774.28;;;14.56;34.64
36404;BME280;22437;55.646;37.518;2022-09-09T14:39:40;99779.59;;;14.08;35.88
36404;BME280;22437;55.646;37.518;2022-09-09T14:42:26;99788.16;;;13.95;36.10
36404;BME280;22437;55.646;37.518;2022-09-09T14:45:29;99779.78;;;14.16;35.57
36404;BME280;22437;55.646;37.518;2022-09-09T14:48:03;99779.72;;;14.00;36.35
36404;BME280;22437;55.646;37.518;2022-09-09T14:50:45;99776.16;;;14.12;35.96
36404;BME280;22437;55.646;37.518;2022-09-09T14:53:28;99775.34;;;14.11;35.29
36404;BME280;22437;55.646;37.518;2022-09-09T14:56:15;99773.63;;;14.19;35.61
36404;BME280;22437;55.646;37.518;2022-09-09T14:59:03;99766.97;;;14.32;35.64
36404;BME280;22437;55.646;37.518;2022-09-09T15:01:42;99771.34;;;14.21;35.71
36404;BME280;22437;55.646;37.518;2022-09-09T15:04:15;99778.31;;;14.18;35.63
36404;BME280;22437;55.646;37.518;2022-09-09T15:06:47;99778.31;;;14.18;35.54
36404;BME280;22437;55.646;37.518;2022-09-09T15:09:23;99781.59;;;14.52;34.69